createdAt,value
2022-09-22T00:04:10.629Z,7.53
2022-09-22T00:07:25.096Z,7.72
2022-09-22T00:10:26.897Z,7.45
2022-09-22T00:13:28.687Z,7.28
2022-09-22T00:16:37.177Z,7.50
2022-09-22T00:19:39.025Z,8.00
2022-09-22T00:22:41.298Z,7.60
2022-09-22T00:25:43.222Z,7.47
2022-09-22T00:28:57.573Z,7.00
2022-09-22T00:32:03.570Z,6.57
2022-09-22T00:35:08.439Z,6.72
2022-09-22T00:38:16.302Z,6.88
2022-09-22T00:41:30.746Z,6.80
2022-09-22T00:44:34.528Z,6.75
2022-09-22T00:47:45.949Z,6.32
2022-09-22T00:50:50.322Z,6.50
2022-09-22T00:53:54.560Z,6.65
2022-09-22T00:57:23.375Z,6.10
2022-09-22T01:00:25.113Z,6.45
2022-09-22T01:03:30.129Z,6.30
2022-09-22T01:06:32.517Z,6.82
2022-09-22T01:09:34.605Z,6.68
2022-09-22T01:12:39.523Z,7.28
2022-09-22T01:15:57.267Z,7.72
2022-09-22T01:19:05.011Z,7.22
2022-09-22T01:22:40.916Z,7.50
2022-09-22T01:25:58.466Z,7.45
2022-09-22T01:29:36.907Z,7.00
2022-09-22T01:33:16.352Z,6.90
2022-09-22T01:36:56.444Z,7.10
2022-09-22T01:40:27.801Z,6.85
2022-09-22T01:43:41.382Z,6.80
2022-09-22T01:47:01.510Z,6.90
2022-09-22T01:50:26.346Z,7.22
2022-09-22T01:53:33.896Z,7.00
2022-09-22T01:56:37.463Z,6.47
2022-09-22T01:59:43.162Z,7.28
2022-09-22T02:02:58.157Z,7.35
2022-09-22T02:06:08.030Z,6.70
2022-09-22T02:09:12.404Z,7.45
2022-09-22T02:12:19.763Z,6.93
2022-09-22T02:15:41.337Z,6.57
2022-09-22T02:18:48.548Z,7.30
2022-09-22T02:21:53.660Z,7.35
2022-09-22T02:24:55.394Z,7.65
2022-09-22T02:27:58.264Z,7.38
2022-09-22T02:31:19.593Z,7.40
2022-09-22T02:34:22.815Z,7.25
2022-09-22T02:38:06.874Z,7.47
2022-09-22T02:41:15.124Z,7.53
2022-09-22T02:44:25.419Z,6.90
2022-09-22T02:47:37.140Z,6.80
2022-09-22T02:50:39.063Z,7.70
2022-09-22T02:53:41.012Z,7.00
2022-09-22T02:56:43.456Z,7.15
2022-09-22T02:59:51.402Z,7.57
2022-09-22T03:02:53.353Z,7.40
2022-09-22T03:05:55.039Z,7.40
2022-09-22T03:08:57.111Z,7.80
2022-09-22T03:11:58.989Z,6.82
2022-09-22T03:15:00.697Z,6.75
2022-09-22T03:18:09.810Z,7.75
2022-09-22T03:21:53.596Z,7.13
2022-09-22T03:24:55.491Z,6.40
2022-09-22T03:27:57.151Z,6.72
2022-09-22T03:30:59.114Z,6.65
2022-09-22T03:34:00.897Z,7.35
2022-09-22T03:37:02.998Z,7.10
2022-09-22T03:40:05.845Z,6.63
2022-09-22T03:43:07.886Z,6.65
2022-09-22T03:46:22.243Z,6.70
2022-09-22T03:49:24.978Z,7.03
2022-09-22T03:52:27.409Z,7.05
2022-09-22T03:55:29.957Z,6.57
2022-09-22T03:58:31.630Z,6.40
2022-09-22T04:01:39.308Z,7.10
2022-09-22T04:04:41.105Z,7.00
2022-09-22T04:07:42.853Z,7.25
2022-09-22T04:10:45.970Z,6.68
2022-09-22T04:13:47.788Z,6.25
2022-09-22T04:16:49.483Z,7.03
2022-09-22T04:19:51.871Z,6.00
2022-09-22T04:22:53.893Z,6.63
2022-09-22T04:25:55.875Z,5.80
2022-09-22T04:28:57.602Z,7.28
2022-09-22T04:32:02.768Z,6.38
2022-09-22T04:35:04.834Z,6.55
2022-09-22T04:38:06.516Z,6.65
2022-09-22T04:41:08.204Z,6.20
2022-09-22T04:44:20.941Z,6.53
2022-09-22T04:47:22.689Z,5.97
2022-09-22T04:50:24.675Z,6.40
2022-09-22T04:56:32.381Z,6.15
2022-09-22T04:59:35.408Z,6.57
2022-09-22T05:02:37.132Z,5.93
2022-09-22T05:05:39.595Z,5.88
2022-09-22T05:08:41.361Z,6.28
2022-09-22T05:11:44.139Z,5.80
2022-09-22T05:14:46.233Z,6.43
2022-09-22T05:17:52.548Z,6.32
2022-09-22T05:20:54.238Z,6.18
2022-09-22T05:23:55.962Z,5.88
2022-09-22T05:26:58.155Z,6.03
2022-09-22T05:30:00.365Z,6.03
2022-09-22T05:33:11.475Z,5.60
2022-09-22T05:36:13.234Z,6.00
2022-09-22T05:39:14.919Z,5.65
2022-09-22T05:42:16.588Z,6.15
2022-09-22T05:45:19.983Z,5.72
2022-09-22T05:51:23.441Z,5.30
2022-09-22T05:54:31.190Z,6.13
2022-09-22T05:57:33.026Z,5.78
2022-09-22T06:00:34.965Z,6.05
2022-09-22T06:03:36.872Z,5.80
2022-09-22T06:06:38.682Z,5.68
2022-09-22T06:09:40.441Z,6.72
2022-09-22T06:12:42.166Z,5.70
2022-09-22T06:15:48.236Z,6.18
2022-09-22T06:18:50.389Z,6.95
2022-09-22T06:21:54.623Z,6.13
2022-09-22T06:24:56.432Z,6.65
2022-09-22T06:28:04.910Z,6.97
2022-09-22T06:31:07.119Z,8.30
2022-09-22T06:34:08.862Z,7.38
2022-09-22T06:37:11.052Z,7.50
2022-09-22T06:40:17.382Z,6.38
2022-09-22T06:43:28.622Z,6.45
2022-09-22T06:46:42.645Z,5.97
2022-09-22T06:49:44.300Z,5.90
2022-09-22T06:53:19.482Z,5.50
2022-09-22T06:56:55.624Z,6.03
2022-09-22T06:59:57.388Z,5.78
2022-09-22T07:03:15.917Z,5.70
2022-09-22T07:06:20.458Z,9.10
2022-09-22T07:09:31.787Z,12.90
2022-09-22T07:12:34.091Z,18.75
2022-09-22T07:15:37.360Z,57.22
2022-09-22T07:18:40.784Z,50.20
2022-09-22T07:24:45.796Z,14.23
2022-09-22T07:27:48.654Z,12.50
2022-09-22T07:30:59.959Z,7.90
2022-09-22T07:34:02.094Z,4.90
2022-09-22T07:37:03.783Z,4.25
2022-09-22T07:40:06.086Z,4.53
2022-09-22T07:43:07.833Z,5.55
2022-09-22T07:46:09.617Z,5.35
2022-09-22T07:49:11.772Z,4.85
2022-09-22T07:52:24.887Z,3.70
2022-09-22T07:55:26.602Z,12.40
2022-09-22T07:58:31.367Z,13.85
2022-09-22T08:01:34.630Z,12.45
2022-09-22T08:04:36.473Z,14.38
2022-09-22T08:07:38.343Z,9.63
2022-09-22T08:10:40.008Z,7.93
2022-09-22T08:13:55.217Z,5.90
2022-09-22T08:16:57.682Z,3.50
2022-09-22T08:20:02.605Z,3.00
2022-09-22T08:23:05.525Z,3.47
2022-09-22T08:26:08.554Z,3.90
2022-09-22T08:29:11.279Z,3.42
2022-09-22T08:32:18.130Z,3.20
2022-09-22T08:35:20.509Z,3.15
2022-09-22T08:38:23.359Z,3.35
2022-09-22T08:41:28.619Z,3.00
2022-09-22T08:44:39.729Z,2.97
2022-09-22T08:48:06.800Z,2.80
2022-09-22T08:51:49.700Z,3.00
2022-09-22T08:54:51.625Z,2.53
2022-09-22T08:58:12.292Z,2.72
2022-09-22T09:01:20.779Z,2.35
2022-09-22T09:05:04.059Z,2.25
2022-09-22T09:08:21.684Z,2.00
2022-09-22T09:11:44.914Z,2.20
2022-09-22T09:14:50.170Z,2.10
2022-09-22T09:17:56.634Z,1.98
2022-09-22T09:21:02.757Z,2.47
2022-09-22T09:27:38.518Z,1.92
2022-09-22T09:30:45.579Z,1.70
2022-09-22T09:34:00.559Z,2.05
2022-09-22T09:37:14.757Z,2.30
2022-09-22T09:40:19.878Z,2.03
2022-09-22T09:43:27.711Z,3.58
2022-09-22T09:46:29.511Z,2.50
2022-09-22T09:49:31.848Z,1.88
2022-09-22T09:52:37.434Z,2.08
2022-09-22T09:55:39.641Z,1.90
2022-09-22T09:59:14.912Z,1.80
2022-09-22T10:02:28.534Z,1.85
2022-09-22T10:08:35.136Z,1.60
2022-09-22T10:11:37.030Z,1.65
2022-09-22T10:14:39.072Z,1.70
2022-09-22T10:17:43.093Z,1.73
2022-09-22T10:20:44.862Z,1.58
2022-09-22T10:23:54.843Z,1.40
2022-09-22T10:26:57.389Z,1.40
2022-09-22T10:30:21.340Z,1.20
2022-09-22T10:36:27.766Z,1.25
2022-09-22T10:39:49.483Z,1.35
2022-09-22T10:42:54.409Z,1.33
2022-09-22T10:46:12.893Z,1.42
2022-09-22T10:49:34.719Z,1.42
2022-09-22T10:52:42.285Z,1.63
2022-09-22T10:55:52.922Z,1.50
2022-09-22T10:59:25.732Z,1.70
2022-09-22T11:02:46.035Z,1.35
2022-09-22T11:06:25.931Z,1.60
2022-09-22T11:10:00.730Z,1.65
2022-09-22T11:13:22.752Z,1.80
2022-09-22T11:17:16.044Z,1.65
2022-09-22T11:20:37.000Z,1.70
2022-09-22T11:23:54.123Z,1.45
2022-09-22T11:26:58.984Z,1.60
2022-09-22T11:30:24.083Z,1.67
2022-09-22T11:34:19.846Z,1.65
2022-09-22T11:38:18.420Z,1.58
2022-09-22T11:41:35.301Z,1.42
2022-09-22T11:44:53.948Z,1.60
2022-09-22T11:48:27.015Z,1.95
2022-09-22T11:51:56.475Z,2.00
2022-09-22T11:55:19.575Z,1.42
2022-09-22T11:58:26.066Z,1.70
2022-09-22T12:01:32.406Z,1.65
2022-09-22T12:05:11.699Z,1.63
2022-09-22T12:08:22.661Z,1.98
2022-09-22T12:11:28.251Z,1.80
2022-09-22T12:14:30.400Z,2.25
2022-09-22T12:17:45.195Z,1.85
2022-09-22T12:20:47.085Z,2.00
2022-09-22T12:23:51.410Z,1.27
2022-09-22T12:27:10.873Z,1.42
2022-09-22T12:30:23.521Z,1.30
2022-09-22T12:33:29.591Z,1.77
2022-09-22T12:36:40.053Z,1.73
2022-09-22T12:39:44.732Z,1.90
2022-09-22T12:42:51.217Z,1.55
2022-09-22T12:45:54.833Z,1.50
2022-09-22T12:48:56.923Z,1.67
2022-09-22T12:51:59.309Z,1.27
2022-09-22T12:55:40.767Z,1.88
2022-09-22T12:58:43.192Z,1.40
2022-09-22T13:01:44.930Z,1.38
2022-09-22T13:04:49.459Z,1.60
2022-09-22T13:07:58.403Z,1.23
2022-09-22T13:11:05.777Z,1.33
2022-09-22T13:14:46.964Z,1.50
2022-09-22T13:17:51.072Z,1.55
2022-09-22T13:20:52.729Z,1.65
2022-09-22T13:23:54.448Z,1.90
2022-09-22T13:27:04.752Z,1.60
2022-09-22T13:30:15.828Z,1.42
2022-09-22T13:33:28.894Z,1.70
2022-09-22T13:36:30.582Z,1.55
2022-09-22T13:39:35.372Z,1.60
2022-09-22T13:42:38.064Z,1.40
2022-09-22T13:45:40.393Z,2.20
2022-09-22T13:48:42.149Z,1.92
2022-09-22T13:51:53.806Z,1.50
2022-09-22T13:54:59.848Z,1.50
2022-09-22T13:58:03.257Z,1.40
2022-09-22T14:04:24.883Z,1.52
2022-09-22T14:07:30.212Z,1.17
2022-09-22T14:10:32.704Z,1.50
2022-09-22T14:13:56.998Z,1.47
2022-09-22T14:17:13.875Z,1.17
2022-09-22T14:20:16.037Z,1.55
2022-09-22T14:23:42.071Z,1.50
2022-09-22T14:26:53.262Z,1.30
2022-09-22T14:29:55.948Z,1.50
2022-09-22T14:33:04.066Z,1.23
2022-09-22T14:36:07.887Z,1.33
2022-09-22T14:39:31.232Z,1.40
2022-09-22T14:42:34.314Z,1.27
2022-09-22T14:45:37.370Z,1.47
2022-09-22T14:48:39.165Z,1.40
2022-09-22T14:51:45.928Z,1.15
2022-09-22T14:54:47.722Z,1.33
2022-09-22T14:57:50.457Z,1.48
2022-09-22T15:01:14.155Z,1.17
2022-09-22T15:04:22.922Z,1.58
2022-09-22T15:07:37.220Z,1.30
2022-09-22T15:10:40.845Z,1.63
2022-09-22T15:13:47.002Z,1.27
2022-09-22T15:16:49.965Z,1.48
2022-09-22T15:19:57.177Z,1.25
2022-09-22T15:22:59.042Z,1.50
2022-09-22T15:26:03.710Z,1.20
2022-09-22T15:29:05.486Z,1.30
2022-09-22T15:32:07.672Z,1.35
2022-09-22T15:35:10.087Z,1.23
2022-09-22T15:38:27.596Z,1.27
2022-09-22T15:41:29.431Z,1.20
2022-09-22T15:44:32.642Z,1.30
2022-09-22T15:47:34.448Z,1.20
2022-09-22T15:50:36.648Z,1.20
2022-09-22T15:53:39.048Z,1.35
2022-09-22T15:56:42.713Z,1.35
2022-09-22T15:59:44.488Z,2.00
2022-09-22T16:02:47.745Z,2.03
2022-09-22T16:05:54.001Z,1.90
2022-09-22T16:08:56.442Z,1.30
2022-09-22T16:11:58.163Z,1.45
2022-09-22T16:15:02.750Z,1.65
2022-09-22T16:18:08.591Z,1.45
2022-09-22T16:21:23.029Z,1.35
2022-09-22T16:24:27.987Z,1.10
2022-09-22T16:27:29.987Z,1.20
2022-09-22T16:30:31.796Z,1.10
2022-09-22T16:33:34.070Z,1.08
2022-09-22T16:36:37.110Z,1.40
2022-09-22T16:39:39.143Z,1.30
2022-09-22T16:42:41.067Z,1.70
2022-09-22T16:46:01.352Z,1.50
2022-09-22T16:49:12.752Z,1.50
2022-09-22T16:52:15.173Z,1.50
2022-09-22T16:55:17.177Z,1.80
2022-09-22T16:58:18.895Z,1.70
2022-09-22T17:01:20.682Z,1.90
2022-09-22T17:04:22.508Z,3.20
2022-09-22T17:07:24.374Z,3.17
2022-09-22T17:10:26.215Z,2.85
2022-09-22T17:13:28.188Z,3.00
2022-09-22T17:16:36.180Z,2.45
2022-09-22T17:19:38.113Z,3.90
2022-09-22T17:22:40.228Z,6.40
2022-09-22T17:25:41.901Z,7.45
2022-09-22T17:28:43.945Z,4.72
2022-09-22T17:31:49.457Z,5.10
2022-09-22T17:35:06.566Z,3.70
2022-09-22T17:38:08.965Z,2.92
2022-09-22T17:41:10.950Z,3.05
2022-09-22T17:44:17.052Z,3.80
2022-09-22T17:47:37.226Z,5.40
2022-09-22T17:50:57.740Z,5.78
2022-09-22T17:54:18.016Z,6.63
2022-09-22T17:57:25.644Z,6.50
2022-09-22T18:00:27.432Z,6.65
2022-09-22T18:03:29.181Z,6.72
2022-09-22T18:06:31.092Z,5.32
2022-09-22T18:09:37.497Z,5.00
2022-09-22T18:12:39.417Z,4.22
2022-09-22T18:15:41.958Z,4.32
2022-09-22T18:18:43.983Z,4.17
2022-09-22T18:21:45.639Z,5.15
2022-09-22T18:24:50.851Z,5.10
2022-09-22T18:27:53.764Z,4.15
2022-09-22T18:30:55.480Z,3.78
2022-09-22T18:33:58.180Z,3.50
2022-09-22T18:37:04.462Z,3.80
2022-09-22T18:40:17.496Z,4.25
2022-09-22T18:43:19.261Z,3.33
2022-09-22T18:46:21.516Z,3.35
2022-09-22T18:49:23.756Z,3.08
2022-09-22T18:52:25.738Z,3.10
2022-09-22T18:55:27.726Z,3.38
2022-09-22T18:58:29.857Z,3.45
2022-09-22T19:01:34.596Z,4.53
2022-09-22T19:04:36.401Z,3.25
2022-09-22T19:07:41.956Z,4.15
2022-09-22T19:10:44.970Z,4.03
2022-09-22T19:13:47.964Z,3.70
2022-09-22T19:16:50.215Z,4.00
2022-09-22T19:19:52.032Z,4.30
2022-09-22T19:22:58.229Z,3.92
2022-09-22T19:26:00.095Z,4.05
2022-09-22T19:29:02.992Z,4.28
2022-09-22T19:32:07.604Z,4.10
2022-09-22T19:35:10.138Z,4.20
2022-09-22T19:38:12.465Z,4.43
2022-09-22T19:41:17.181Z,4.90
2022-09-22T19:44:20.810Z,4.88
2022-09-22T19:47:23.157Z,5.38
2022-09-22T19:50:31.164Z,5.25
2022-09-22T19:53:33.342Z,6.00
2022-09-22T19:56:35.578Z,6.97
2022-09-22T19:59:37.296Z,6.47
2022-09-22T20:02:39.056Z,5.80
2022-09-22T20:05:41.902Z,6.32
2022-09-22T20:08:43.605Z,6.50
2022-09-22T20:11:49.966Z,6.43
2022-09-22T20:14:51.602Z,6.43
2022-09-22T20:17:54.144Z,6.43
2022-09-22T20:20:57.082Z,6.80
2022-09-22T20:23:58.860Z,6.72
2022-09-22T20:27:00.530Z,7.72
2022-09-22T20:30:03.291Z,6.40
2022-09-22T20:33:19.226Z,6.18
2022-09-22T20:36:20.980Z,6.25
2022-09-22T20:39:23.224Z,6.82
2022-09-22T20:42:25.040Z,7.78
2022-09-22T20:45:27.313Z,24.55
2022-09-22T20:48:30.243Z,19.15
2022-09-22T20:51:33.592Z,11.73
2022-09-22T20:54:36.237Z,8.65
2022-09-22T20:57:38.989Z,6.80
2022-09-22T21:00:40.752Z,6.43
2022-09-22T21:03:43.622Z,6.53
2022-09-22T21:06:45.545Z,6.10
2022-09-22T21:10:05.783Z,6.32
2022-09-22T21:13:07.689Z,6.90
2022-09-22T21:16:10.195Z,6.68
2022-09-22T21:19:12.664Z,6.80
2022-09-22T21:22:15.189Z,6.10
2022-09-22T21:25:25.363Z,6.20
2022-09-22T21:28:28.489Z,5.72
2022-09-22T21:31:41.058Z,5.50
2022-09-22T21:34:43.025Z,5.75
2022-09-22T21:37:44.807Z,5.68
2022-09-22T21:40:47.009Z,5.35
2022-09-22T21:43:50.124Z,5.30
2022-09-22T21:46:52.276Z,5.28
2022-09-22T21:49:53.948Z,6.47
2022-09-22T21:53:04.884Z,5.38
2022-09-22T21:56:12.106Z,4.88
2022-09-22T21:59:14.265Z,5.90
2022-09-22T22:02:15.957Z,5.10
2022-09-22T22:05:17.611Z,4.93
2022-09-22T22:18:36.069Z,6.45
2022-09-22T22:21:43.351Z,5.75
2022-09-22T22:24:45.292Z,6.35
2022-09-22T22:27:47.058Z,6.25
2022-09-22T22:30:48.848Z,6.70
2022-09-22T22:33:50.537Z,6.07
2022-09-22T22:36:53.208Z,7.00
2022-09-22T22:39:55.109Z,5.87
2022-09-22T22:42:59.486Z,6.72
2022-09-22T22:46:01.230Z,6.15
2022-09-22T22:49:03.184Z,6.45
2022-09-22T22:52:04.993Z,6.25
2022-09-22T22:55:09.381Z,6.20
2022-09-22T22:58:18.312Z,6.15
2022-09-22T23:01:30.051Z,6.47
2022-09-22T23:04:34.033Z,5.75
2022-09-22T23:07:38.346Z,5.22
2022-09-22T23:10:39.996Z,4.43
2022-09-22T23:14:07.699Z,3.38
2022-09-22T23:17:09.363Z,3.78
2022-09-22T23:20:12.756Z,3.15
2022-09-22T23:26:17.660Z,3.63
2022-09-22T23:29:19.661Z,2.85
2022-09-22T23:32:21.773Z,2.90
2022-09-22T23:35:23.522Z,2.47
2022-09-22T23:38:27.285Z,2.95
2022-09-22T23:41:33.107Z,2.70
2022-09-22T23:44:34.853Z,3.13
2022-09-22T23:47:36.806Z,3.05
2022-09-22T23:50:38.508Z,3.60
2022-09-22T23:53:40.387Z,3.22
2022-09-22T23:56:55.927Z,3.42
2022-09-22T23:59:57.700Z,3.60
